Time;durP1;ratioP1;P1;durP2;ratioP2;P2;SDS_P1;SDS_P2;PMS_P1;PMS_P2;Temp;Humidity;BMP_temperature;BMP_pressure;BME280_temperature;BME280_humidity;BME280_pressure;Samples;Min_cycle;Max_cycle;Signal;HPM_P1;HPM_P2
2022/06/04 00:00:01;;;;;;;7.50;6.18;;;;;;;18.44;100.00;99748.00;12193426;19;20037;-80
2022/06/04 00:04:14;;;;;;;8.77;7.35;;;;;;;18.41;100.00;99740.22;12181794;19;20011;-80
2022/06/04 00:08:16;;;;;;;7.78;6.53;;;;;;;18.37;100.00;99728.03;12200426;19;20140;-79
2022/06/04 00:16:38;;;;;;;8.63;6.63;;;;;;;18.21;100.00;99716.31;12179839;19;20007;-80
2022/06/04 00:20:41;;;;;;;8.52;5.70;;;;;;;18.08;100.00;99715.09;12201049;19;20167;-80
2022/06/04 00:24:44;;;;;;;7.25;5.95;;;;;;;17.96;100.00;99728.66;12185094;19;20014;-80
2022/06/04 00:28:46;;;;;;;8.52;6.57;;;;;;;17.86;100.00;99729.63;12233230;19;20018;-79
2022/06/04 00:32:48;;;;;;;10.13;5.75;;;;;;;17.76;100.00;99725.00;12221947;19;20403;-80
2022/06/04 00:36:49;;;;;;;9.40;6.50;;;;;;;17.66;100.00;99727.91;12183703;19;20010;-80
2022/06/04 00:41:33;;;;;;;8.40;6.25;;;;;;;17.55;100.00;99737.56;12200466;19;20082;-80
2022/06/04 00:45:34;;;;;;;8.05;5.70;;;;;;;17.41;100.00;99744.97;12183117;19;20034;-80
2022/06/04 00:49:36;;;;;;;8.68;5.78;;;;;;;17.34;100.00;99741.69;12217556;19;20014;-80
2022/06/04 00:53:39;;;;;;;7.53;5.97;;;;;;;17.24;100.00;99740.69;12205664;19;20583;-80
2022/06/04 00:57:59;;;;;;;10.45;6.32;;;;;;;17.18;100.00;99761.38;12193837;19;20028;-80
2022/06/04 01:02:22;;;;;;;8.55;7.20;;;;;;;17.17;100.00;99767.25;12194467;19;20034;-79
2022/06/04 01:06:39;;;;;;;9.38;6.40;;;;;;;17.24;100.00;99757.41;12192441;19;20015;-80
2022/06/04 01:10:50;;;;;;;10.25;6.97;;;;;;;17.26;100.00;99762.69;12205125;19;20401;-80
2022/06/04 01:15:01;;;;;;;9.77;7.05;;;;;;;17.27;100.00;99767.94;12220746;19;20058;-79
2022/06/04 01:19:27;;;;;;;9.75;6.88;;;;;;;17.31;100.00;99787.66;12205431;19;20010;-79
2022/06/04 01:23:39;;;;;;;8.88;6.82;;;;;;;17.35;100.00;99801.88;12206461;19;20003;-80
2022/06/04 01:28:11;;;;;;;9.55;7.20;;;;;;;17.37;100.00;99788.44;12192140;19;20004;-80
2022/06/04 01:32:26;;;;;;;10.13;7.83;;;;;;;17.33;100.00;99793.78;12211384;19;20011;-79
2022/06/04 01:36:33;;;;;;;7.45;6.55;;;;;;;17.28;100.00;99789.13;12181267;19;20342;-79
2022/06/04 01:41:03;;;;;;;10.68;7.47;;;;;;;17.22;100.00;99776.38;12197436;19;20034;-79
2022/06/04 01:45:11;;;;;;;10.73;6.85;;;;;;;17.08;100.00;99761.50;12205897;19;20007;-80
2022/06/04 01:49:28;;;;;;;10.20;6.88;;;;;;;16.97;100.00;99754.34;12188687;19;20440;-80
2022/06/04 01:53:36;;;;;;;8.40;6.60;;;;;;;16.82;100.00;99749.78;12216816;19;20038;-79
2022/06/04 01:57:46;;;;;;;10.18;7.55;;;;;;;16.70;100.00;99735.38;12238965;19;20014;-79
2022/06/04 02:01:52;;;;;;;11.18;6.63;;;;;;;16.59;100.00;99745.75;12211719;19;20099;-79
2022/06/04 02:05:59;;;;;;;9.57;7.20;;;;;;;16.46;100.00;99738.09;12212758;19;20017;-80
2022/06/04 02:10:28;;;;;;;9.55;6.85;;;;;;;16.37;100.00;99724.81;12181584;19;20086;-80
2022/06/04 02:14:30;;;;;;;9.35;6.70;;;;;;;16.29;100.00;99717.09;12201985;19;20499;-81
2022/06/04 02:18:32;;;;;;;9.15;7.25;;;;;;;16.25;100.00;99712.41;12178157;19;20010;-80
2022/06/04 02:22:34;;;;;;;9.48;8.07;;;;;;;16.19;100.00;99711.59;12205371;19;20007;-80
2022/06/04 02:26:38;;;;;;;9.80;7.50;;;;;;;16.13;100.00;99710.00;12203442;19;20046;-80
2022/06/04 02:30:51;;;;;;;9.02;7.63;;;;;;;16.07;100.00;99717.53;12193001;19;20012;-80
2022/06/04 02:35:00;;;;;;;9.30;7.03;;;;;;;15.98;100.00;99718.44;12206780;19;20010;-80
2022/06/04 02:39:11;;;;;;;10.43;8.77;;;;;;;15.85;100.00;99717.94;12212883;19;20011;-80
2022/06/04 02:43:30;;;;;;;10.63;7.60;;;;;;;15.81;100.00;99722.41;12185956;19;20030;-80
2022/06/04 02:47:42;;;;;;;11.73;7.60;;;;;;;15.77;100.00;99731.63;12208368;19;20840;-80
2022/06/04 02:51:48;;;;;;;11.20;8.25;;;;;;;15.75;100.00;99733.84;12190730;19;20015;-80
2022/06/04 02:55:59;;;;;;;10.70;8.50;;;;;;;15.71;100.00;99723.31;12207194;19;20508;-80
2022/06/04 03:00:04;;;;;;;10.35;8.23;;;;;;;15.67;100.00;99724.13;12211945;19;20054;-80
2022/06/04 03:04:09;;;;;;;10.60;8.50;;;;;;;15.64;100.00;99719.97;12187817;19;20009;-80
2022/06/04 03:08:10;;;;;;;11.80;9.57;;;;;;;15.63;100.00;99729.41;12208679;19;20033;-80
2022/06/04 03:12:12;;;;;;;11.63;9.30;;;;;;;15.62;100.00;99724.16;12207775;19;20400;-80
2022/06/04 03:16:16;;;;;;;11.13;8.63;;;;;;;15.63;100.00;99728.59;12185835;19;20011;-79
2022/06/04 03:20:22;;;;;;;11.05;9.00;;;;;;;15.64;100.00;99724.69;12242848;19;20270;-78
2022/06/04 03:24:23;;;;;;;12.23;10.48;;;;;;;15.61;100.00;99723.31;12232223;19;20009;-79
2022/06/04 03:28:25;;;;;;;14.07;10.65;;;;;;;15.60;100.00;99726.38;12248410;19;20035;-80
2022/06/04 03:32:26;;;;;;;14.02;11.07;;;;;;;15.60;100.00;99718.88;12242326;19;20614;-79
2022/06/04 03:36:29;;;;;;;21.05;11.73;;;;;;;15.65;100.00;99726.38;12231653;19;20023;-79
2022/06/04 03:40:31;;;;;;;24.65;16.05;;;;;;;15.73;100.00;99725.78;12238652;19;20039;-79
2022/06/04 03:44:32;;;;;;;25.23;18.52;;;;;;;15.82;100.00;99721.28;12247104;19;20519;-79
2022/06/04 03:48:35;;;;;;;26.45;17.77;;;;;;;15.93;100.00;99725.66;12229289;19;20007;-78
2022/06/04 03:52:37;;;;;;;35.40;22.70;;;;;;;16.01;100.00;99732.59;12245090;19;20011;-79
2022/06/04 03:56:39;;;;;;;32.67;21.73;;;;;;;16.13;100.00;99743.34;12216685;19;20010;-80
2022/06/04 04:00:41;;;;;;;29.50;20.48;;;;;;;16.26;100.00;99751.03;12187490;19;20026;-81
2022/06/04 04:04:43;;;;;;;28.88;20.25;;;;;;;16.36;100.00;99748.19;12210255;19;20003;-80
2022/06/04 04:08:45;;;;;;;28.02;19.80;;;;;;;16.44;100.00;99749.50;12207820;19;20023;-79
2022/06/04 04:12:46;;;;;;;30.85;21.88;;;;;;;16.50;100.00;99769.75;12188088;19;20025;-79
2022/06/04 04:16:48;;;;;;;27.02;19.73;;;;;;;16.56;100.00;99774.97;12222061;19;20018;-80
2022/06/04 04:20:49;;;;;;;25.98;19.08;;;;;;;16.64;100.00;99781.88;12215518;19;20010;-81
2022/06/04 04:24:51;;;;;;;26.63;20.65;;;;;;;16.71;100.00;99790.72;12197019;19;20034;-80
2022/06/04 04:28:53;;;;;;;28.65;19.50;;;;;;;16.75;100.00;99797.38;12202248;19;20054;-81
2022/06/04 04:32:55;;;;;;;30.80;19.85;;;;;;;16.81;100.00;99798.22;12216012;19;20014;-81
2022/06/04 04:36:57;;;;;;;24.50;18.83;;;;;;;16.85;100.00;99794.53;12190158;19;20024;-80
2022/06/04 04:40:59;;;;;;;22.70;17.40;;;;;;;17.01;100.00;99788.81;12203358;19;20828;-79
2022/06/04 04:45:00;;;;;;;25.63;17.27;;;;;;;17.15;100.00;99786.19;12205656;19;20086;-80
2022/06/04 04:49:02;;;;;;;17.63;11.70;;;;;;;17.31;100.00;99796.03;12179447;19;20017;-80
2022/06/04 04:53:09;;;;;;;21.67;17.02;;;;;;;17.49;100.00;99800.00;12217809;19;20602;-79
2022/06/04 04:57:11;;;;;;;19.02;14.95;;;;;;;17.69;100.00;99815.66;12214563;19;20017;-79
2022/06/04 05:01:24;;;;;;;20.08;15.18;;;;;;;17.85;100.00;99827.50;12185729;19;20053;-81
2022/06/04 05:05:26;;;;;;;19.00;14.40;;;;;;;17.99;100.00;99840.44;12210088;19;21009;-80
2022/06/04 05:09:28;;;;;;;22.35;14.93;;;;;;;18.08;100.00;99842.53;12180205;19;20381;-81
2022/06/04 05:13:29;;;;;;;18.98;14.15;;;;;;;18.10;100.00;99845.84;12201203;19;20388;-80
2022/06/04 05:17:31;;;;;;;16.73;13.52;;;;;;;18.09;100.00;99833.88;12213271;19;20034;-80
2022/06/04 05:21:47;;;;;;;17.30;12.60;;;;;;;18.14;100.00;99835.75;12220160;19;20056;-79
2022/06/04 05:25:49;;;;;;;16.80;12.25;;;;;;;18.24;100.00;99843.16;12219755;19;20089;-81
2022/06/04 05:29:50;;;;;;;15.95;12.68;;;;;;;18.33;100.00;99849.72;12215950;19;20057;-80
2022/06/04 05:33:52;;;;;;;18.30;13.82;;;;;;;18.42;100.00;99861.88;12191431;19;20883;-80
2022/06/04 05:37:54;;;;;;;16.30;13.13;;;;;;;18.53;100.00;99865.34;12218180;19;20038;-81
2022/06/04 05:41:55;;;;;;;15.10;12.67;;;;;;;18.77;100.00;99862.50;12210126;19;20365;-81
2022/06/04 05:46:03;;;;;;;16.05;12.07;;;;;;;19.06;100.00;99857.53;12189093;19;20010;-81
2022/06/04 05:50:05;;;;;;;16.45;12.07;;;;;;;19.34;100.00;99857.63;12205135;19;20007;-80
2022/06/04 05:54:07;;;;;;;14.03;11.00;;;;;;;19.61;100.00;99867.22;12214558;19;20062;-81
2022/06/04 05:58:09;;;;;;;14.90;12.15;;;;;;;19.78;100.00;99862.69;12192710;19;20006;-80
2022/06/04 06:02:11;;;;;;;14.10;11.15;;;;;;;19.95;100.00;99867.66;12208118;19;20038;-81
2022/06/04 06:06:15;;;;;;;14.98;11.90;;;;;;;20.02;100.00;99861.66;12215690;19;20029;-82
2022/06/04 06:10:32;;;;;;;15.10;11.65;;;;;;;20.04;100.00;99856.56;12177734;19;20667;-80
2022/06/04 06:14:34;;;;;;;13.82;11.43;;;;;;;20.29;100.00;99848.78;12193577;19;20552;-80
2022/06/04 06:18:36;;;;;;;13.15;10.82;;;;;;;20.52;100.00;99858.03;12179735;19;20329;-80
2022/06/04 06:22:38;;;;;;;14.73;11.23;;;;;;;20.61;100.00;99862.63;12211175;19;20010;-81
2022/06/04 06:26:48;;;;;;;14.75;10.65;;;;;;;20.83;100.00;99861.00;12201851;19;20033;-80
2022/06/04 06:30:51;;;;;;;12.18;9.82;;;;;;;21.03;100.00;99856.84;12181311;19;20662;-80
2022/06/04 06:34:53;;;;;;;13.68;9.57;;;;;;;21.21;100.00;99863.41;12203039;19;20014;-80
2022/06/04 06:38:55;;;;;;;11.95;9.30;;;;;;;21.36;100.00;99863.88;12215937;19;20030;-79
2022/06/04 06:42:57;;;;;;;10.85;9.32;;;;;;;21.66;100.00;99872.63;12167563;19;20035;-80
2022/06/04 06:46:58;;;;;;;11.07;8.47;;;;;;;21.84;100.00;99865.94;12174947;19;20038;-80
2022/06/04 06:51:09;;;;;;;12.50;9.07;;;;;;;22.00;97.65;99866.31;12201876;19;20070;-80
2022/06/04 06:55:11;;;;;;;9.40;8.32;;;;;;;22.27;98.08;99878.47;12174087;19;20014;-79
2022/06/04 06:59:15;;;;;;;9.07;7.20;;;;;;;22.41;95.88;99867.13;12198854;19;20010;-82
2022/06/04 07:03:18;;;;;;;10.15;6.60;;;;;;;22.62;93.27;99868.13;12207301;19;20077;-79
2022/06/04 07:07:19;;;;;;;10.60;6.68;;;;;;;22.71;92.46;99866.16;12185641;19;20070;-79
2022/06/04 07:11:22;;;;;;;;;;;;;;;22.75;91.43;99872.78;12194231;19;20014;-80
2022/06/04 07:15:23;;;;;;;7.97;6.47;;;;;;;22.78;90.97;99865.66;12178876;19;19977;-82
2022/06/04 07:19:27;;;;;;;8.73;6.70;;;;;;;22.69;89.45;99864.81;12204105;19;20354;-82
2022/06/04 07:23:28;;;;;;;;;;;;;;;22.73;89.34;99869.47;12206076;19;20791;-81
2022/06/04 07:27:30;;;;;;;7.15;6.45;;;;;;;22.88;87.36;99864.50;12185762;19;20388;-81
2022/06/04 07:31:32;;;;;;;8.83;5.83;;;;;;;22.98;86.92;99872.63;12204399;19;20010;-83
2022/06/04 07:35:34;;;;;;;9.20;5.85;;;;;;;22.72;83.51;99876.22;12203145;19;20022;-80
2022/06/04 07:39:36;;;;;;;7.33;6.30;;;;;;;23.10;84.01;99881.22;12179785;19;20015;-81
2022/06/04 07:43:37;;;;;;;11.15;7.15;;;;;;;23.29;83.74;99888.44;12198209;19;20023;-80
2022/06/04 07:47:44;;;;;;;8.63;7.30;;;;;;;23.62;82.34;99894.34;12216049;19;20032;-79
2022/06/04 07:51:46;;;;;;;13.07;8.45;;;;;;;23.70;80.88;99899.13;12194398;19;20006;-79
2022/06/04 07:55:48;;;;;;;9.52;6.93;;;;;;;23.64;80.46;99898.47;12212900;19;20033;-79
2022/06/04 07:59:50;;;;;;;9.83;8.23;;;;;;;23.73;80.69;99915.34;12211269;19;20017;-80
2022/06/04 08:03:53;;;;;;;9.47;7.90;;;;;;;23.70;80.08;99918.00;12193972;19;20014;-80
2022/06/04 08:07:55;;;;;;;9.18;7.13;;;;;;;23.74;78.62;99919.03;12215164;19;20021;-79
2022/06/04 08:11:57;;;;;;;8.77;6.90;;;;;;;23.78;77.96;99925.63;12210252;19;20065;-79
2022/06/04 08:16:01;;;;;;;8.60;7.30;;;;;;;23.90;77.47;99928.53;12188087;19;20011;-79
2022/06/04 08:20:03;;;;;;;10.18;6.82;;;;;;;24.24;76.40;99927.59;12204960;19;20400;-79
2022/06/04 08:24:05;;;;;;;8.45;6.47;;;;;;;24.45;75.72;99916.41;12217274;19;20007;-80
2022/06/04 08:28:07;;;;;;;;;;;;;;;24.64;75.60;99924.41;12190978;19;20567;-79
2022/06/04 08:32:09;;;;;;;8.73;6.50;;;;;;;24.86;73.93;99914.78;12209532;19;19915;-80
2022/06/04 08:36:12;;;;;;;7.63;5.93;;;;;;;25.09;72.33;99925.72;12211091;19;20006;-80
2022/06/04 08:40:37;;;;;;;6.47;5.75;;;;;;;25.24;68.06;99925.13;12191959;19;20010;-79
2022/06/04 08:45:10;;;;;;;6.35;5.20;;;;;;;25.22;68.91;99914.22;12218986;19;20010;-79
2022/06/04 08:49:23;;;;;;;5.65;4.70;;;;;;;25.15;69.73;99902.63;12185337;19;20366;-79
2022/06/04 08:53:28;;;;;;;4.75;3.92;;;;;;;25.05;67.34;99919.16;12210726;19;20115;-79
2022/06/04 08:57:43;;;;;;;5.07;3.65;;;;;;;24.91;63.42;99917.41;12184935;19;19998;-80
2022/06/04 09:01:55;;;;;;;5.53;4.03;;;;;;;25.40;64.79;99928.13;12207700;19;20417;-79
2022/06/04 09:06:02;;;;;;;4.50;3.83;;;;;;;25.69;60.42;99935.63;12200611;19;20035;-78
2022/06/04 09:10:04;;;;;;;5.22;4.13;;;;;;;25.60;59.86;99934.91;12191386;19;22040;-80
2022/06/04 09:14:52;;;;;;;5.32;3.72;;;;;;;25.85;61.30;99939.47;12206601;19;20430;-79
2022/06/04 09:18:59;;;;;;;3.47;3.08;;;;;;;26.21;57.34;99940.72;12193308;19;20420;-80
2022/06/04 09:23:16;;;;;;;4.00;2.72;;;;;;;26.64;56.55;99947.78;12208101;19;20382;-79
2022/06/04 09:27:51;;;;;;;7.97;3.72;;;;;;;27.10;55.47;99951.25;12211894;19;20034;-80
2022/06/04 09:31:59;;;;;;;3.85;2.55;;;;;;;26.71;54.23;99948.03;12111151;19;2004485;-80
2022/06/04 09:36:01;;;;;;;3.47;2.78;;;;;;;26.94;55.44;99950.34;12209310;19;20017;-79
2022/06/04 09:40:06;;;;;;;3.53;3.08;;;;;;;27.03;54.09;99948.19;12180624;19;20082;-80
2022/06/04 09:44:15;;;;;;;3.50;2.65;;;;;;;27.00;52.84;99944.06;12208143;19;20015;-79
2022/06/04 09:48:38;;;;;;;3.13;2.60;;;;;;;26.98;52.09;99942.78;12212099;19;20472;-79
2022/06/04 09:52:43;;;;;;;4.53;3.05;;;;;;;26.93;53.32;99951.53;12190260;19;20493;-79
2022/06/04 09:56:52;;;;;;;4.68;3.42;;;;;;;26.85;52.10;99944.00;12210214;19;20712;-80
2022/06/04 10:01:16;;;;;;;4.10;3.40;;;;;;;26.78;53.04;99945.41;12178249;19;20003;-81
2022/06/04 10:05:21;;;;;;;6.50;3.42;;;;;;;26.76;52.77;99953.41;12205263;19;20472;-81
2022/06/04 10:13:48;;;;;;;4.70;4.18;;;;;;;27.15;52.51;99948.19;12206659;19;20007;-80
2022/06/04 10:18:03;;;;;;;5.22;4.15;;;;;;;27.48;52.23;99945.13;12215516;19;20018;-80
2022/06/04 10:22:07;;;;;;;6.28;3.30;;;;;;;27.70;51.98;99952.22;12189965;19;20034;-80
2022/06/04 10:26:30;;;;;;;4.80;3.67;;;;;;;27.58;51.64;99957.94;12207154;19;20360;-81
2022/06/04 10:30:50;;;;;;;4.07;3.38;;;;;;;27.49;51.92;99965.75;12191473;19;20010;-80
2022/06/04 10:35:22;;;;;;;3.40;2.75;;;;;;;27.31;51.29;99967.22;12218697;19;20041;-81
2022/06/04 10:39:40;;;;;;;3.92;3.10;;;;;;;27.20;51.56;99967.75;12185045;19;20475;-80
2022/06/04 10:43:47;;;;;;;4.60;3.00;;;;;;;27.55;51.79;99964.31;12200574;19;20014;-80
2022/06/04 10:47:55;;;;;;;4.25;3.20;;;;;;;27.57;49.62;99970.41;12203629;19;20010;-80
2022/06/04 10:52:24;;;;;;;3.75;2.95;;;;;;;27.75;50.51;99972.94;12186162;19;20010;-80
2022/06/04 10:56:51;;;;;;;3.90;3.30;;;;;;;27.72;48.89;99968.81;12217359;19;20010;-80
2022/06/04 11:01:06;;;;;;;4.85;3.00;;;;;;;27.60;50.48;99974.53;12178880;19;20035;-80
2022/06/04 11:21:11;;;;;;;4.75;3.50;;;;;;;28.25;47.42;99974.31;12095815;19;2004670;-80
2022/06/04 11:25:50;;;;;;;3.30;3.00;;;;;;;28.39;47.50;99964.16;12173451;19;20107;-80
2022/06/04 11:31:01;;;;;;;4.85;3.75;;;;;;;28.53;47.59;99966.56;12177014;19;20026;-80
2022/06/04 11:35:04;;;;;;;5.05;3.88;;;;;;;28.48;47.86;99969.69;12192402;19;20626;-80
2022/06/04 11:39:19;;;;;;;4.35;3.67;;;;;;;28.72;48.32;99965.00;12202029;19;20410;-81
2022/06/04 11:43:46;;;;;;;6.72;3.80;;;;;;;28.79;46.82;99948.97;12180064;19;21109;-80
2022/06/04 11:47:58;;;;;;;5.00;3.72;;;;;;;28.60;46.54;99955.41;12202483;19;20007;-80
2022/06/04 11:52:17;;;;;;;4.88;3.97;;;;;;;28.33;47.65;99956.31;12182744;19;20010;-80
2022/06/04 11:56:38;;;;;;;4.78;3.90;;;;;;;28.21;47.70;99953.59;12200959;19;20010;-81
2022/06/04 12:00:43;;;;;;;4.35;3.75;;;;;;;28.38;47.82;99956.03;12180150;19;20044;-80
2022/06/04 12:05:03;;;;;;;4.00;3.60;;;;;;;28.53;47.28;99943.09;12205413;19;20074;-80
2022/06/04 12:09:15;;;;;;;3.95;3.00;;;;;;;28.92;45.85;99946.00;12205687;19;20070;-80
2022/06/04 12:13:44;;;;;;;3.70;2.70;;;;;;;28.67;44.49;99940.56;12172950;19;20389;-81
2022/06/04 12:17:51;;;;;;;6.60;2.50;;;;;;;28.81;44.16;99940.91;12211258;19;20066;-81
2022/06/04 12:26:25;;;;;;;3.72;2.88;;;;;;;28.56;44.71;99943.16;12191456;19;20368;-80
2022/06/04 12:30:40;;;;;;;3.33;2.80;;;;;;;28.43;45.67;99941.59;12178389;19;20078;-80
2022/06/04 12:34:42;;;;;;;2.78;2.45;;;;;;;29.16;44.56;99934.41;12213124;19;20035;-80
2022/06/04 12:38:46;;;;;;;10.52;4.28;;;;;;;30.16;43.81;99935.56;12205567;19;20034;-80
2022/06/04 12:42:58;;;;;;;8.07;4.35;;;;;;;32.05;39.40;99928.88;12179041;19;20384;-81
2022/06/04 12:47:20;;;;;;;5.13;3.85;;;;;;;32.74;37.32;99931.06;12203722;19;20010;-81
2022/06/04 12:51:46;;;;;;;4.35;3.95;;;;;;;33.10;36.89;99934.97;12182293;19;20011;-81
2022/06/04 12:55:55;;;;;;;7.00;5.50;;;;;;;33.54;35.11;99927.44;12198951;19;20092;-82
2022/06/04 13:00:26;;;;;;;6.80;4.88;;;;;;;35.10;33.70;99927.94;12205143;19;20014;-82
2022/06/04 13:04:39;;;;;;;4.35;3.92;;;;;;;36.43;30.64;99916.53;12193877;19;20108;-82
2022/06/04 13:08:51;;;;;;;4.30;3.90;;;;;;;36.12;30.30;99910.66;12212849;19;20010;-82
2022/06/04 13:13:00;;;;;;;4.68;4.20;;;;;;;34.79;33.08;99915.31;12179303;19;20034;-82
2022/06/04 13:17:18;;;;;;;7.38;5.00;;;;;;;33.86;33.82;99918.97;12201599;19;20014;-81
2022/06/04 13:21:21;;;;;;;5.35;4.45;;;;;;;35.05;32.89;99923.47;12190840;19;20110;-81
2022/06/04 13:25:35;;;;;;;5.10;4.60;;;;;;;36.02;30.37;99935.28;12211346;19;20018;-82
2022/06/04 13:29:39;;;;;;;4.00;3.60;;;;;;;36.72;29.94;99940.88;12209123;19;20377;-83
2022/06/04 13:33:41;;;;;;;6.65;4.00;;;;;;;37.68;28.34;99938.16;12178140;19;20093;-83
2022/06/04 13:37:43;;;;;;;5.40;3.63;;;;;;;38.64;27.87;99937.91;12205412;19;20417;-82
2022/06/04 13:42:09;;;;;;;5.07;4.10;;;;;;;38.77;26.99;99926.56;12196066;19;20038;-82
2022/06/04 13:46:15;;;;;;;6.18;4.10;;;;;;;40.24;25.74;99925.06;12186225;19;20006;-82
2022/06/04 13:50:20;;;;;;;4.60;3.90;;;;;;;40.87;24.57;99923.03;12195763;19;20014;-83
2022/06/04 13:54:22;;;;;;;3.53;3.22;;;;;;;41.15;24.15;99913.59;12184015;19;20078;-82
2022/06/04 13:58:38;;;;;;;3.97;3.40;;;;;;;40.80;23.30;99908.81;12207015;19;20479;-82
2022/06/04 14:02:42;;;;;;;5.65;3.42;;;;;;;40.29;24.00;99915.88;12192761;19;20069;-83
2022/06/04 14:06:46;;;;;;;4.00;3.60;;;;;;;38.01;26.01;99927.81;12190571;19;20022;-82
2022/06/04 14:11:00;;;;;;;4.70;3.50;;;;;;;35.26;29.37;99931.16;12205719;19;20011;-82
2022/06/04 14:15:18;;;;;;;6.43;3.45;;;;;;;33.38;31.13;99946.97;12196159;19;20003;-82
2022/06/04 14:19:48;;;;;;;5.88;3.90;;;;;;;31.76;33.27;99934.25;12182724;19;20007;-81
2022/06/04 14:24:19;;;;;;;5.38;3.95;;;;;;;30.42;35.67;99937.66;12200338;19;20014;-81
2022/06/04 14:28:32;;;;;;;4.15;3.28;;;;;;;29.62;36.09;99940.25;12181956;19;20015;-80
2022/06/04 14:32:47;;;;;;;3.83;3.30;;;;;;;29.28;36.95;99947.66;12206302;19;20013;-82
2022/06/04 14:36:55;;;;;;;4.88;3.20;;;;;;;28.78;38.96;99940.81;12182828;19;20014;-82
2022/06/04 14:41:06;;;;;;;4.20;3.80;;;;;;;28.23;41.80;99932.19;12204030;19;20071;-80
2022/06/04 14:45:38;;;;;;;4.82;4.25;;;;;;;28.05;42.82;99931.75;12211181;19;20036;-81
2022/06/04 14:50:03;;;;;;;5.03;3.73;;;;;;;28.06;43.57;99930.53;12191181;19;20010;-80
2022/06/04 14:54:05;;;;;;;3.75;3.35;;;;;;;27.98;44.68;99927.88;12207495;19;20002;-80
2022/06/04 14:58:21;;;;;;;5.05;3.75;;;;;;;29.83;42.09;99927.66;12182523;19;20432;-80
2022/06/04 15:02:48;;;;;;;5.70;3.75;;;;;;;31.17;39.66;99915.19;12200638;19;20014;-81
2022/06/04 15:07:02;;;;;;;5.63;4.53;;;;;;;31.59;37.80;99925.50;12174703;19;20094;-81
2022/06/04 15:11:44;;;;;;;5.03;4.20;;;;;;;31.17;38.17;99927.41;12198462;19;20097;-81
2022/06/04 15:15:59;;;;;;;6.38;4.35;;;;;;;33.08;35.58;99906.03;12173677;19;20099;-81
2022/06/04 15:20:39;;;;;;;6.40;5.65;;;;;;;35.13;32.33;99901.31;12202331;19;20094;-82
2022/06/04 15:24:56;;;;;;;20.45;16.63;;;;;;;34.07;33.42;99912.47;12176593;19;20118;-81
2022/06/04 15:34:00;;;;;;;15.75;13.27;;;;;;;31.98;35.53;99906.00;12182322;19;20011;-81
2022/06/04 15:38:13;;;;;;;1391.75;891.83;;;;;;;30.79;37.28;99897.22;12202764;19;20078;-81
2022/06/04 15:42:19;;;;;;;41.35;37.30;;;;;;;30.24;38.68;99888.22;12201524;19;20010;-81
2022/06/04 15:46:37;;;;;;;8.27;6.65;;;;;;;29.74;39.33;99890.97;12184285;19;20126;-80
2022/06/04 15:55:26;;;;;;;4.60;3.83;;;;;;;28.72;41.02;99891.28;12206819;19;20010;-82
2022/06/04 15:59:55;;;;;;;4.25;3.53;;;;;;;28.54;41.52;99894.50;12156731;19;20544;-81
2022/06/04 16:04:09;;;;;;;4.40;3.95;;;;;;;28.39;42.43;99890.47;12176485;19;20070;-81
2022/06/04 16:08:18;;;;;;;4.90;4.32;;;;;;;28.14;42.64;99884.22;12219183;19;20007;-81
2022/06/04 16:12:35;;;;;;;4.65;4.03;;;;;;;28.42;41.92;99886.13;12202021;19;20066;-81
2022/06/04 16:16:48;;;;;;;5.50;4.15;;;;;;;28.12;42.98;99883.75;12215534;19;20006;-82
2022/06/04 16:21:04;;;;;;;4.03;3.63;;;;;;;27.97;43.02;99867.59;12213153;19;20098;-81
2022/06/04 16:25:17;;;;;;;5.45;3.70;;;;;;;27.86;42.99;99866.50;12190943;19;20090;-81
2022/06/04 16:29:29;;;;;;;4.57;4.18;;;;;;;27.55;43.71;99864.44;12194288;19;20086;-80
2022/06/04 16:33:49;;;;;;;5.88;3.75;;;;;;;27.33;44.49;99860.19;12193628;19;20539;-81
2022/06/04 16:38:30;;;;;;;8.13;4.40;;;;;;;27.29;45.40;99870.59;12210327;19;20010;-81
2022/06/04 16:42:39;;;;;;;5.43;3.42;;;;;;;27.25;44.57;99865.66;12186248;19;20022;-81
2022/06/04 16:47:01;;;;;;;73.38;9.55;;;;;;;27.13;45.42;99865.69;12217998;19;20011;-80
2022/06/04 16:51:09;;;;;;;4.47;3.38;;;;;;;26.87;45.30;99865.31;12211368;19;20102;-81
2022/06/04 16:55:14;;;;;;;6.57;3.70;;;;;;;26.80;44.82;99866.75;12193383;19;20066;-80
2022/06/04 16:59:16;;;;;;;4.60;3.60;;;;;;;26.74;45.38;99862.50;12212341;19;20093;-80
2022/06/04 17:03:39;;;;;;;4.63;3.17;;;;;;;26.71;45.30;99854.75;12209860;19;20518;-80
2022/06/04 17:08:19;;;;;;;5.07;3.70;;;;;;;26.54;47.22;99849.38;12190811;19;20021;-80
2022/06/04 17:12:35;;;;;;;6.53;3.78;;;;;;;26.51;47.06;99850.91;12195265;19;20081;-80
2022/06/04 17:16:42;;;;;;;3.47;3.17;;;;;;;26.48;47.56;99853.59;12204199;19;20023;-80
2022/06/04 17:21:17;;;;;;;4.20;3.63;;;;;;;26.56;47.90;99849.81;12211150;19;20444;-80
2022/06/04 17:25:24;;;;;;;5.55;3.95;;;;;;;26.49;47.80;99855.22;12188614;19;20023;-80
2022/06/04 17:29:45;;;;;;;5.93;3.22;;;;;;;26.50;47.96;99865.38;12208611;19;20018;-80
2022/06/04 17:34:10;;;;;;;4.72;3.20;;;;;;;26.64;47.05;99865.81;12188594;19;20014;-80
2022/06/04 17:38:33;;;;;;;4.15;2.55;;;;;;;26.47;46.62;99860.41;12217834;19;20020;-80
2022/06/04 17:42:35;;;;;;;3.75;2.50;;;;;;;26.26;46.79;99857.72;12185616;19;20010;-80
2022/06/04 17:46:38;;;;;;;3.10;2.60;;;;;;;26.16;46.60;99867.50;12205151;19;20106;-80
2022/06/04 17:50:45;;;;;;;4.00;2.00;;;;;;;26.09;46.67;99878.56;12195652;19;20041;-80
2022/06/04 17:54:47;;;;;;;2.67;2.08;;;;;;;26.01;46.95;99879.50;12191944;19;20034;-80
2022/06/04 17:58:54;;;;;;;3.10;2.50;;;;;;;25.89;46.83;99877.50;12202836;19;20118;-80
2022/06/04 18:02:57;;;;;;;2.60;2.22;;;;;;;25.82;47.09;99877.22;12206554;19;20039;-81
2022/06/04 18:06:59;;;;;;;;;;;;;;;25.71;47.49;99885.31;12182798;19;20474;-81
2022/06/04 18:11:01;;;;;;;4.20;2.83;;;;;;;25.67;47.58;99875.88;12208584;19;19919;-80
2022/06/04 18:15:05;;;;;;;4.72;3.05;;;;;;;25.60;48.15;99879.28;12208170;19;20271;-80
2022/06/04 18:19:07;;;;;;;4.47;3.35;;;;;;;25.48;49.39;99872.78;12191010;19;20014;-80
2022/06/04 18:23:09;;;;;;;4.33;2.90;;;;;;;25.30;49.76;99875.78;12214199;19;20002;-81
2022/06/04 18:27:12;;;;;;;;;;;;;;;25.13;50.41;99881.56;12215344;19;20276;-81
2022/06/04 18:31:21;;;;;;;6.20;3.08;;;;;;;24.93;51.26;99871.97;12196373;19;19994;-81
2022/06/04 18:35:24;;;;;;;5.38;3.30;;;;;;;24.69;52.68;99881.09;12213663;19;20046;-81
2022/06/04 18:39:25;;;;;;;4.22;2.95;;;;;;;24.42;53.81;99880.47;12170464;19;20031;-81
2022/06/04 18:56:31;;;;;;;7.68;3.80;;;;;;;23.28;58.99;99896.06;12209207;19;20015;-80
2022/06/04 19:00:33;;;;;;;4.72;3.28;;;;;;;23.05;59.85;99898.22;12185694;19;20447;-81
2022/06/04 19:04:35;;;;;;;7.37;3.93;;;;;;;22.83;60.87;99906.81;12196734;19;20011;-81
2022/06/04 19:08:36;;;;;;;3.93;3.40;;;;;;;22.61;62.20;99904.97;12209263;19;20310;-80
2022/06/04 19:16:59;;;;;;;8.27;4.15;;;;;;;22.17;63.38;99898.44;12207544;19;19918;-81
2022/06/04 19:25:21;;;;;;;7.72;3.95;;;;;;;21.77;66.38;99890.81;12212902;19;20006;-80
2022/06/04 19:29:24;;;;;;;5.82;4.65;;;;;;;21.61;67.40;99887.59;12238842;19;20368;-80
2022/06/04 19:33:26;;;;;;;;;;;;;;;21.44;68.12;99889.47;12173309;19;20010;-80
2022/06/04 19:37:28;;;;;;;4.43;4.00;;;;;;;21.30;68.06;99884.75;12206501;19;19915;-79
2022/06/04 19:41:30;;;;;;;6.27;4.30;;;;;;;21.17;69.10;99891.22;12198758;19;20018;-79
2022/06/04 19:45:33;;;;;;;7.43;4.53;;;;;;;21.05;69.97;99889.00;12184549;19;20337;-80
2022/06/04 19:49:39;;;;;;;6.57;4.30;;;;;;;20.94;70.99;99893.22;12204417;19;20014;-80
2022/06/04 19:58:01;;;;;;;6.88;4.50;;;;;;;20.72;71.34;99896.81;12184291;19;20006;-80
2022/06/04 20:02:06;;;;;;;4.40;3.85;;;;;;;20.63;72.63;99898.69;12208456;19;20010;-80
2022/06/04 20:06:08;;;;;;;10.77;4.13;;;;;;;20.56;72.92;99898.31;12200125;19;20009;-80
2022/06/04 20:10:11;;;;;;;5.55;4.28;;;;;;;20.50;73.45;99905.97;12189488;19;20007;-80
2022/06/04 20:14:13;;;;;;;5.53;4.00;;;;;;;20.44;73.93;99908.03;12214296;19;20038;-81